Time;durP1;ratioP1;P1;durP2;ratioP2;P2;SDS_P1;SDS_P2;PMS_P1;PMS_P2;Temp;Humidity;BMP_temperature;BMP_pressure;BME280_temperature;BME280_humidity;BME280_pressure;Samples;Min_cycle;Max_cycle;Signal;HPM_P1;HPM_P2
2022/02/05 00:00:31;;;;;;;26.97;14.85;;;;;;;-2.59;55.04;99281.41;1702899;84;21078;-39
2022/02/05 00:03:12;;;;;;;28.90;16.60;;;;;;;-2.56;55.28;99281.38;1728473;83;21339;-39
2022/02/05 00:05:52;;;;;;;28.35;15.45;;;;;;;-2.54;55.61;99282.70;1727796;82;21081;-40
2022/02/05 00:13:40;;;;;;;26.00;15.70;;;;;;;-2.45;55.72;99287.69;1743349;82;21626;-40
2022/02/05 00:40:55;;;;;;;22.07;12.58;;;;;;;-2.52;56.07;99236.00;1729874;82;21102;-39
2022/02/05 00:42:57;;;;;;;20.68;12.15;;;;;;;-2.48;55.73;99239.68;1736883;82;21077;-39
2022/02/05 00:45:23;;;;;;;18.90;12.03;;;;;;;-2.47;55.42;99229.33;1743406;82;21180;-39
2022/02/05 00:47:50;;;;;;;21.77;12.73;;;;;;;-2.48;55.39;99229.86;1743083;82;20957;-40
2022/02/05 00:50:21;;;;;;;24.57;13.55;;;;;;;-2.47;55.50;99224.02;1743439;82;21049;-39
2022/02/05 00:52:58;;;;;;;21.10;12.67;;;;;;;-2.48;55.50;99228.53;1743343;81;20973;-40
2022/02/05 00:55:22;;;;;;;20.95;12.40;;;;;;;-2.49;55.56;99222.95;1742408;81;21756;-39
2022/02/05 00:57:46;;;;;;;23.12;13.30;;;;;;;-2.48;55.60;99223.22;1749741;81;21093;-39
2022/02/05 01:00:18;;;;;;;22.62;13.60;;;;;;;-2.46;55.52;99221.06;1756806;81;25236;-39
2022/02/05 01:02:44;;;;;;;29.10;14.25;;;;;;;-2.46;55.62;99215.75;1756525;81;21032;-40
2022/02/05 01:05:12;;;;;;;26.75;14.10;;;;;;;-2.47;55.79;99215.49;1751154;81;21029;-39
2022/02/05 01:07:40;;;;;;;28.20;16.02;;;;;;;-2.49;55.84;99211.55;1756543;81;21503;-40
2022/02/05 01:10:08;;;;;;;25.43;14.85;;;;;;;-2.54;56.06;99216.36;1756532;81;21356;-40
2022/02/05 01:12:38;;;;;;;28.25;16.05;;;;;;;-2.55;56.27;99214.77;1756437;80;21504;-39
2022/02/05 01:15:05;;;;;;;29.60;16.50;;;;;;;-2.59;56.52;99212.41;1756350;81;21484;-39
2022/02/05 01:17:43;;;;;;;33.10;17.32;;;;;;;-2.61;56.78;99219.08;1756874;81;21507;-39
2022/02/05 01:20:30;;;;;;;28.92;16.65;;;;;;;-2.62;56.95;99222.80;1755976;81;21025;-39
2022/02/05 01:22:38;;;;;;;28.45;16.17;;;;;;;-2.66;57.14;99221.20;1753972;80;21129;-39
2022/02/05 01:25:05;;;;;;;26.15;14.90;;;;;;;-2.69;57.27;99218.59;1720289;83;21729;-39
2022/02/05 01:27:44;;;;;;;28.32;15.55;;;;;;;-2.70;57.30;99221.50;1702500;84;20974;-39
2022/02/05 01:30:20;;;;;;;27.13;14.85;;;;;;;-2.70;57.40;99224.16;1701348;84;21033;-40
2022/02/05 01:32:49;;;;;;;28.98;15.65;;;;;;;-2.68;57.35;99210.09;1700670;84;21058;-40
2022/02/05 01:54:11;;;;;;;23.83;14.20;;;;;;;-2.37;55.19;99208.78;1690643;84;21555;-39
2022/02/05 01:59:09;;;;;;;25.85;15.45;;;;;;;-2.33;54.86;99212.48;1683120;83;21452;-39
2022/02/05 02:12:12;;;;;;;29.90;15.45;;;;;;;-2.15;55.00;99202.23;1724241;80;21095;-40
2022/02/05 02:22:47;;;;;;;23.60;14.03;;;;;;;-2.08;55.05;99184.12;1748924;82;21041;-40
2022/02/05 02:25:37;;;;;;;26.35;14.43;;;;;;;-2.07;54.82;99183.02;1748074;81;21963;-39
2022/02/05 02:28:13;;;;;;;26.12;14.13;;;;;;;-2.04;54.58;99187.80;1746445;81;21098;-39
2022/02/05 02:30:39;;;;;;;26.73;13.98;;;;;;;-2.04;54.58;99187.80;1747854;81;21001;-40
2022/02/05 02:33:13;;;;;;;22.45;14.00;;;;;;;-2.07;54.53;99185.67;1754595;80;20925;-39
2022/02/05 02:35:35;;;;;;;;;;;;;;;-2.06;54.31;99184.61;1780976;80;20953;-39
2022/02/05 02:38:07;;;;;;;25.27;13.83;;;;;;;-2.07;54.53;99190.45;1779993;80;20170;-40
2022/02/05 02:40:38;;;;;;;23.98;14.33;;;;;;;-2.15;54.67;99189.75;1778932;80;21589;-39
2022/02/05 02:43:04;;;;;;;26.93;14.40;;;;;;;-2.11;54.79;99186.78;1778763;80;20881;-39
2022/02/05 02:45:25;;;;;;;22.07;13.18;;;;;;;-2.08;54.92;99182.79;1779495;80;20987;-39
2022/02/05 02:47:52;;;;;;;24.80;13.80;;;;;;;-2.04;54.89;99177.17;1779992;80;21005;-39
2022/02/05 02:58:26;;;;;;;22.62;12.88;;;;;;;-1.96;55.22;99160.61;1746008;82;21029;-39
2022/02/05 03:00:55;;;;;;;;;;;;;;;-1.93;55.24;99154.72;1745560;81;21568;-40
2022/02/05 03:03:19;;;;;;;22.77;13.18;;;;;;;-1.92;55.42;99150.99;1742891;80;20525;-40
2022/02/05 03:05:45;;;;;;;24.75;13.45;;;;;;;-1.96;55.71;99148.65;1707570;84;21882;-39
2022/02/05 03:08:12;;;;;;;25.90;13.68;;;;;;;-1.89;55.70;99151.21;1743123;81;21061;-39
2022/02/05 03:10:39;;;;;;;23.47;13.90;;;;;;;-1.85;55.82;99144.81;1743085;82;20962;-39
2022/02/05 03:13:05;;;;;;;23.18;13.40;;;;;;;-1.84;55.95;99150.39;1743469;82;20942;-39
2022/02/05 03:15:38;;;;;;;22.80;12.88;;;;;;;-1.83;56.15;99149.30;1743194;82;21053;-39
2022/02/05 03:18:10;;;;;;;27.13;13.98;;;;;;;-1.87;56.43;99157.58;1743467;82;21129;-39
2022/02/05 03:20:36;;;;;;;24.02;14.20;;;;;;;-1.91;56.61;99152.58;1743241;82;20931;-40
2022/02/05 03:23:03;;;;;;;26.10;14.13;;;;;;;-2.00;56.94;99136.48;1743301;81;21523;-39
2022/02/05 03:25:33;;;;;;;23.50;13.65;;;;;;;-2.11;57.51;99148.27;1749815;80;21013;-40
2022/02/05 03:27:59;;;;;;;;;;;;;;;-2.15;57.79;99146.47;1782350;80;21076;-39
2022/02/05 03:30:26;;;;;;;23.65;13.80;;;;;;;-2.23;58.11;99145.22;1779690;80;21017;-39
2022/02/05 03:32:55;;;;;;;23.85;13.75;;;;;;;-2.32;58.62;99146.34;1769255;80;20973;-39
2022/02/05 03:35:22;;;;;;;25.08;13.53;;;;;;;-2.27;58.79;99138.86;1707743;84;21024;-39
2022/02/05 03:37:48;;;;;;;22.30;13.62;;;;;;;-2.24;58.86;99134.34;1738831;82;21013;-40
2022/02/05 03:40:15;;;;;;;22.35;12.93;;;;;;;-2.25;59.09;99126.11;1707581;82;20993;-40
2022/02/05 03:42:42;;;;;;;19.80;13.03;;;;;;;-2.26;59.33;99121.34;1743382;82;21050;-40
2022/02/05 03:45:10;;;;;;;22.07;13.40;;;;;;;-2.28;59.56;99117.39;1743243;82;21509;-40
2022/02/05 03:47:37;;;;;;;23.95;13.30;;;;;;;-2.28;59.91;99120.84;1743502;82;21092;-39
2022/02/05 03:50:05;;;;;;;18.73;11.88;;;;;;;-2.30;60.05;99111.03;1743241;82;20946;-39
2022/02/05 03:52:33;;;;;;;19.73;12.80;;;;;;;-2.33;60.47;99116.91;1743752;81;21013;-39
2022/02/05 03:55:00;;;;;;;18.40;12.58;;;;;;;-2.34;60.52;99106.03;1743268;82;21211;-39
2022/02/05 03:57:26;;;;;;;18.65;11.95;;;;;;;-2.33;60.77;99107.63;1743427;82;21077;-40
2022/02/05 03:59:53;;;;;;;22.07;12.00;;;;;;;-2.25;60.86;99116.29;1743150;82;21024;-39
2022/02/05 04:02:19;;;;;;;18.40;11.75;;;;;;;-2.19;61.03;99113.05;1743451;82;21517;-39
2022/02/05 04:04:46;;;;;;;19.17;12.07;;;;;;;-2.12;60.93;99119.33;1743319;82;21670;-40
2022/02/05 04:07:13;;;;;;;20.32;12.05;;;;;;;-2.06;61.03;99120.87;1743390;82;21076;-40
2022/02/05 04:09:42;;;;;;;20.60;12.25;;;;;;;-2.38;60.99;99067.05;1743110;82;20926;-39
2022/02/05 04:17:40;;;;;;;17.90;11.93;;;;;;;-2.04;61.33;99118.73;1734949;82;20998;-39
2022/02/05 04:20:08;;;;;;;20.17;11.65;;;;;;;-2.03;61.39;99111.03;1735090;82;21781;-39
2022/02/05 04:22:34;;;;;;;19.75;12.65;;;;;;;-1.98;61.32;99110.94;1729840;82;20932;-39
2022/02/05 04:25:02;;;;;;;18.00;11.28;;;;;;;-1.95;61.30;99109.86;1713866;83;21348;-39
2022/02/05 04:27:29;;;;;;;18.42;11.40;;;;;;;-1.88;61.31;99110.83;1713554;83;21026;-40
2022/02/05 04:29:56;;;;;;;21.55;11.93;;;;;;;-1.85;61.17;99112.94;1713681;83;21097;-39
2022/02/05 04:32:22;;;;;;;19.25;11.70;;;;;;;-1.82;61.20;99099.07;1713734;83;21934;-40
2022/02/05 04:34:49;;;;;;;18.55;11.78;;;;;;;-1.77;61.15;99105.66;1741589;81;20895;-40
2022/02/05 04:37:18;;;;;;;18.00;11.83;;;;;;;-1.76;61.14;99101.92;1743261;82;20989;-40
2022/02/05 04:39:51;;;;;;;17.75;11.35;;;;;;;-1.73;61.19;99101.34;1743368;82;21005;-39
2022/02/05 04:42:20;;;;;;;20.90;11.85;;;;;;;-1.65;61.13;99095.42;1742820;81;21022;-40
2022/02/05 04:45:14;;;;;;;19.40;11.20;;;;;;;-1.60;60.99;99095.35;1742932;81;21147;-39
2022/02/05 04:52:44;;;;;;;19.37;11.30;;;;;;;-1.65;61.13;99086.66;1743265;82;21520;-40
2022/02/05 05:02:48;;;;;;;18.75;10.80;;;;;;;-1.55;61.20;99083.30;1757056;80;21036;-40
2022/02/05 05:05:19;;;;;;;18.20;11.15;;;;;;;-1.53;61.23;99087.01;1766292;80;20957;-39
2022/02/05 05:20:57;;;;;;;18.35;11.90;;;;;;;-1.42;61.28;99095.89;1743603;82;27051;-39
2022/02/05 05:23:23;;;;;;;21.00;11.97;;;;;;;-1.42;61.34;99102.55;1743273;82;21136;-40
2022/02/05 05:25:51;;;;;;;16.75;10.98;;;;;;;-1.43;61.41;99092.19;1743140;81;21009;-40
2022/02/05 05:28:19;;;;;;;17.27;11.48;;;;;;;-1.44;61.43;99087.94;1743280;81;20981;-40
2022/02/05 05:30:45;;;;;;;16.75;10.60;;;;;;;-1.43;61.53;99095.64;1743478;82;21481;-40
2022/02/05 05:33:12;;;;;;;18.23;11.15;;;;;;;-1.39;61.55;99096.64;1743237;80;21108;-40
2022/02/05 05:35:39;;;;;;;16.65;11.65;;;;;;;-1.38;61.50;99099.56;1743569;82;21038;-39
2022/02/05 05:38:05;;;;;;;16.37;11.35;;;;;;;-1.36;61.57;99101.94;1743058;82;21484;-40
2022/02/05 05:40:34;;;;;;;15.58;10.40;;;;;;;-1.34;61.60;99095.24;1743163;82;21004;-39
2022/02/05 05:43:05;;;;;;;19.85;11.63;;;;;;;-1.27;61.55;99099.42;1743182;81;20998;-40
2022/02/05 05:48:10;;;;;;;16.82;11.45;;;;;;;-1.25;61.55;99101.23;1743117;81;21137;-40
2022/02/05 05:53:12;;;;;;;15.83;10.82;;;;;;;-1.21;61.82;99100.37;1743197;81;21058;-40
2022/02/05 05:55:44;;;;;;;15.45;11.35;;;;;;;-1.21;61.89;99099.61;1773417;80;21044;-40
2022/02/05 05:58:10;;;;;;;17.85;11.08;;;;;;;-1.20;62.05;99090.52;1779303;80;21016;-41
2022/02/05 06:00:39;;;;;;;18.05;11.33;;;;;;;-1.16;62.13;99088.89;1779317;80;21130;-39
2022/02/05 06:03:05;;;;;;;17.25;11.38;;;;;;;-1.11;62.07;99095.44;1749919;80;21510;-40
2022/02/05 06:05:32;;;;;;;21.60;12.78;;;;;;;-1.08;62.21;99093.55;1695727;82;20948;-40
2022/02/05 06:07:59;;;;;;;20.12;11.33;;;;;;;-1.07;62.43;99097.26;1748525;82;21028;-40
2022/02/05 06:10:26;;;;;;;19.05;11.63;;;;;;;-1.10;62.47;99091.17;1748457;82;21023;-40
2022/02/05 06:12:53;;;;;;;16.75;11.10;;;;;;;-1.14;62.70;99086.72;1748497;82;21116;-40
2022/02/05 06:15:19;;;;;;;19.00;12.00;;;;;;;-1.14;62.93;99087.52;1748659;82;21467;-40
2022/02/05 06:17:49;;;;;;;15.98;11.55;;;;;;;-1.15;63.01;99082.47;1748573;82;21506;-40
2022/02/05 06:20:17;;;;;;;20.17;12.45;;;;;;;-1.15;63.14;99076.61;1748496;82;20952;-39
2022/02/05 06:22:44;;;;;;;14.73;11.08;;;;;;;-1.11;63.21;99078.94;1757878;80;21490;-40
2022/02/05 06:25:10;;;;;;;16.87;11.38;;;;;;;-1.07;63.23;99081.83;1782300;80;21067;-40
2022/02/05 06:27:37;;;;;;;18.32;11.50;;;;;;;-1.05;63.40;99083.11;1774142;80;21036;-39
2022/02/05 06:30:05;;;;;;;19.12;12.13;;;;;;;-1.03;63.51;99080.17;1748433;82;21020;-40
2022/02/05 06:32:32;;;;;;;16.35;11.53;;;;;;;-0.99;63.55;99078.50;1748681;80;21004;-40
2022/02/05 06:34:58;;;;;;;21.07;12.82;;;;;;;-0.94;63.60;99077.09;1748475;82;21514;-40
2022/02/05 06:37:24;;;;;;;19.57;12.33;;;;;;;-0.89;63.60;99071.70;1748730;82;21139;-40
2022/02/05 06:39:51;;;;;;;18.07;12.15;;;;;;;-0.86;63.59;99072.43;1748308;82;20964;-40
2022/02/05 06:42:17;;;;;;;21.33;11.57;;;;;;;-0.84;63.58;99074.27;1748789;82;20992;-40
2022/02/05 06:44:44;;;;;;;20.20;12.95;;;;;;;-0.80;63.59;99071.27;1748701;82;21056;-39
2022/02/05 06:47:10;;;;;;;20.15;12.25;;;;;;;-0.79;63.55;99067.54;1748718;82;21594;-40
2022/02/05 06:49:37;;;;;;;17.50;12.30;;;;;;;-0.78;63.59;99064.34;1748564;82;21907;-40
2022/02/05 06:52:07;;;;;;;19.65;12.95;;;;;;;-0.81;63.71;99064.36;1748581;82;21569;-40
2022/02/05 06:54:35;;;;;;;21.33;13.80;;;;;;;-0.78;63.78;99068.33;1748516;82;21529;-39
2022/02/05 06:57:01;;;;;;;19.27;12.93;;;;;;;-0.79;63.99;99067.54;1748752;82;21037;-40
2022/02/05 06:59:28;;;;;;;16.65;12.03;;;;;;;-0.78;64.05;99069.13;1752010;81;21780;-40
2022/02/05 07:01:54;;;;;;;17.55;12.28;;;;;;;-0.76;64.17;99060.29;1756347;81;21155;-40
2022/02/05 07:04:24;;;;;;;20.37;13.10;;;;;;;-0.74;64.16;99051.48;1756337;81;20941;-40
2022/02/05 07:06:54;;;;;;;14.65;10.03;;;;;;;-0.72;64.20;99041.85;1756506;81;21068;-39
2022/02/05 07:09:21;;;;;;;23.02;13.80;;;;;;;-0.71;64.22;99030.12;1756236;81;20970;-40
2022/02/05 07:14:34;;;;;;;19.65;13.28;;;;;;;-0.60;64.05;99036.33;1779444;79;22669;-39
2022/02/05 07:17:12;;;;;;;17.42;12.88;;;;;;;-0.68;64.18;99036.22;1738489;82;20930;-38
2022/02/05 07:22:06;;;;;;;20.02;13.38;;;;;;;-0.65;64.14;99039.08;1727568;81;21016;-38
2022/02/05 07:24:51;;;;;;;21.00;13.18;;;;;;;-0.65;64.14;99031.63;1723517;83;20980;-38
2022/02/05 07:29:48;;;;;;;21.90;12.78;;;;;;;-0.62;64.29;99019.84;1729898;83;21025;-38
2022/02/05 07:32:14;;;;;;;20.35;13.28;;;;;;;-0.60;64.32;99007.58;1729759;83;21563;-38
2022/02/05 07:34:41;;;;;;;22.15;13.68;;;;;;;-0.56;64.33;99012.02;1714220;83;20973;-38
2022/02/05 07:37:09;;;;;;;19.32;12.98;;;;;;;-0.50;64.29;99006.86;1712433;83;20961;-39
2022/02/05 07:39:44;;;;;;;19.60;13.65;;;;;;;-0.44;64.13;99000.33;1712303;83;21008;-38
2022/02/05 07:42:08;;;;;;;19.87;13.15;;;;;;;-0.40;64.08;98995.75;1711699;83;21072;-39
2022/02/05 07:44:35;;;;;;;21.40;13.65;;;;;;;-0.42;64.10;98995.25;1712470;83;21177;-38
2022/02/05 07:47:02;;;;;;;17.70;13.25;;;;;;;-0.47;64.21;98994.27;1712454;83;21041;-38
2022/02/05 07:49:36;;;;;;;19.15;13.60;;;;;;;-0.48;64.29;98995.34;1684359;84;20985;-38
2022/02/05 07:51:58;;;;;;;19.57;13.20;;;;;;;-0.53;64.50;98990.66;1709079;84;20954;-39
2022/02/05 07:54:24;;;;;;;20.80;13.80;;;;;;;-0.56;64.62;98993.92;1723498;82;21087;-38
2022/02/05 07:56:51;;;;;;;19.30;13.22;;;;;;;-0.55;64.75;98993.64;1723354;83;21523;-38
2022/02/05 07:59:18;;;;;;;19.85;13.78;;;;;;;-0.52;64.78;98997.03;1709811;84;21523;-38
2022/02/05 08:01:46;;;;;;;19.77;14.20;;;;;;;-0.52;64.76;98994.91;1723617;83;21035;-39
2022/02/05 08:04:13;;;;;;;22.77;13.30;;;;;;;-0.55;64.87;98993.64;1710114;84;21033;-39
2022/02/05 08:06:44;;;;;;;20.35;13.15;;;;;;;-0.53;64.87;98985.33;1720793;83;21052;-38
2022/02/05 08:09:42;;;;;;;21.20;14.40;;;;;;;-0.50;64.82;98984.22;1720869;83;21202;-38
2022/02/05 08:11:46;;;;;;;22.27;14.60;;;;;;;-0.46;64.87;98985.74;1713207;83;21064;-38
2022/02/05 08:14:11;;;;;;;22.10;14.10;;;;;;;-0.42;64.83;98980.61;1710349;83;21053;-39
2022/02/05 08:19:07;;;;;;;22.52;13.98;;;;;;;-0.37;64.71;98983.17;1730156;83;21088;-38
2022/02/05 08:21:34;;;;;;;23.80;13.75;;;;;;;-0.41;64.89;98971.00;1730349;83;21886;-39
2022/02/05 08:24:01;;;;;;;22.07;15.08;;;;;;;-0.40;64.94;98975.78;1729918;83;21080;-38
2022/02/05 08:26:29;;;;;;;21.48;13.90;;;;;;;-0.44;65.15;98968.37;1729657;83;21035;-38
2022/02/05 08:28:56;;;;;;;21.40;14.53;;;;;;;-0.44;65.43;98976.36;1729695;83;22023;-38
2022/02/05 08:31:23;;;;;;;24.15;15.40;;;;;;;-0.44;65.40;98965.70;1729600;83;21025;-38
2022/02/05 08:33:49;;;;;;;21.48;14.45;;;;;;;-0.41;65.48;98962.22;1717513;83;21150;-38
2022/02/05 08:36:22;;;;;;;22.48;14.60;;;;;;;-0.40;65.53;98965.13;1707451;84;21016;-38
2022/02/05 08:38:53;;;;;;;19.85;13.88;;;;;;;-0.36;65.55;98968.23;1707169;84;21037;-38
2022/02/05 08:41:20;;;;;;;20.05;14.05;;;;;;;-0.31;65.53;98970.00;1707449;84;21610;-39
2022/02/05 08:43:46;;;;;;;24.23;14.45;;;;;;;-0.27;65.51;98977.10;1707252;84;21033;-38
2022/02/05 08:46:12;;;;;;;19.87;14.35;;;;;;;-0.25;65.49;98968.28;1707576;84;22241;-38
2022/02/05 08:48:39;;;;;;;22.35;14.80;;;;;;;-0.23;65.57;98969.30;1707213;84;21078;-38
2022/02/05 08:51:06;;;;;;;19.45;13.83;;;;;;;-0.23;65.60;98962.64;1707491;84;21485;-38
2022/02/05 08:53:32;;;;;;;19.82;14.30;;;;;;;-0.20;65.62;98962.06;1707155;84;20978;-39
2022/02/05 08:55:59;;;;;;;21.20;14.28;;;;;;;-0.18;65.66;98962.53;1707540;84;21113;-39
2022/02/05 08:58:27;;;;;;;23.20;15.25;;;;;;;-0.16;65.67;98957.17;1707226;83;21149;-39
2022/02/05 09:01:08;;;;;;;23.20;14.63;;;;;;;-0.11;65.75;98951.73;1707306;84;20945;-38
2022/02/05 09:05:52;;;;;;;21.42;14.55;;;;;;;0.07;65.50;98943.34;1718911;83;21076;-39
2022/02/05 09:08:26;;;;;;;24.65;15.05;;;;;;;0.10;65.44;98942.73;1722765;83;21512;-39
2022/02/05 09:11:01;;;;;;;25.20;14.53;;;;;;;0.13;65.42;98938.16;1706615;84;21160;-38
2022/02/05 09:13:38;;;;;;;22.95;15.60;;;;;;;0.17;65.33;98937.00;1708470;83;21040;-39
2022/02/05 09:15:54;;;;;;;27.00;15.68;;;;;;;0.20;65.38;98939.84;1713846;83;20981;-38
2022/02/05 09:18:21;;;;;;;25.12;15.03;;;;;;;0.23;65.43;98936.59;1714599;83;21093;-38
2022/02/05 09:20:47;;;;;;;20.10;14.23;;;;;;;0.26;65.41;98929.86;1715992;83;21061;-38
2022/02/05 09:23:14;;;;;;;23.75;15.30;;;;;;;0.29;65.47;98927.37;1720600;82;22033;-38
2022/02/05 09:25:42;;;;;;;23.75;16.45;;;;;;;0.31;65.50;98933.73;1720503;83;21001;-38
2022/02/05 09:28:10;;;;;;;26.55;16.65;;;;;;;0.27;65.57;98924.23;1720015;82;20964;-38
2022/02/05 09:33:22;;;;;;;24.85;16.23;;;;;;;0.28;65.78;98932.48;1691730;83;21039;-38
2022/02/05 09:35:49;;;;;;;23.65;16.20;;;;;;;0.26;65.94;98918.66;1691605;84;21827;-39
2022/02/05 09:38:15;;;;;;;25.55;16.23;;;;;;;0.26;66.13;98911.98;1691665;84;20937;-38
2022/02/05 09:40:42;;;;;;;22.17;15.50;;;;;;;0.30;66.17;98918.83;1691651;84;20991;-38
2022/02/05 09:43:08;;;;;;;25.12;15.70;;;;;;;0.31;66.18;98918.53;1691600;84;21067;-38
2022/02/05 09:45:36;;;;;;;26.42;16.37;;;;;;;0.32;66.28;98909.99;1691747;84;21502;-38
2022/02/05 09:48:05;;;;;;;24.47;16.02;;;;;;;0.35;66.38;98907.50;1708257;83;21134;-39
2022/02/05 09:50:31;;;;;;;26.55;16.12;;;;;;;0.41;66.34;98911.63;1720548;83;21006;-39
2022/02/05 09:53:04;;;;;;;26.05;16.45;;;;;;;0.44;66.33;98900.34;1720436;83;21030;-39
2022/02/05 09:55:27;;;;;;;22.93;15.45;;;;;;;0.47;66.44;98890.97;1719837;83;21019;-38
2022/02/05 09:57:53;;;;;;;26.57;16.12;;;;;;;0.49;66.51;98887.98;1720572;83;21062;-38
2022/02/05 10:00:21;;;;;;;23.87;16.73;;;;;;;0.49;66.63;98877.31;1720648;83;21389;-38
2022/02/05 10:02:55;;;;;;;23.95;15.72;;;;;;;0.50;66.93;98877.55;1704658;83;21086;-39
2022/02/05 10:05:21;;;;;;;22.65;15.85;;;;;;;0.48;67.01;98874.42;1698871;83;21013;-39
2022/02/05 10:08:09;;;;;;;18.25;12.13;;;;;;;0.43;67.31;98872.67;1720268;83;21551;-39
2022/02/05 10:10:44;;;;;;;25.08;16.42;;;;;;;0.40;67.58;98869.27;1720542;83;20976;-39
2022/02/05 10:13:19;;;;;;;23.60;15.75;;;;;;;0.33;68.06;98869.70;1720167;83;21126;-39
2022/02/05 10:15:53;;;;;;;24.87;15.40;;;;;;;0.33;68.15;98865.70;1751195;81;20950;-38
2022/02/05 10:18:38;;;;;;;25.23;16.45;;;;;;;0.34;68.36;98859.27;1751522;82;20973;-39
2022/02/05 10:21:24;;;;;;;27.98;16.93;;;;;;;0.36;68.45;98854.42;1751040;81;21029;-38
2022/02/05 10:24:04;;;;;;;26.68;16.62;;;;;;;0.38;68.58;98854.12;1750908;81;21574;-39
2022/02/05 10:26:39;;;;;;;26.80;17.60;;;;;;;0.36;68.78;98853.09;1751028;82;21313;-39
2022/02/05 10:29:16;;;;;;;23.60;15.40;;;;;;;0.37;68.97;98853.34;1751032;82;21060;-39
2022/02/05 10:35:18;;;;;;;25.72;15.95;;;;;;;0.40;69.14;98838.59;1744639;82;21396;-39
2022/02/05 10:37:34;;;;;;;26.00;17.37;;;;;;;0.40;69.32;98842.59;1738156;82;21080;-40
2022/02/05 10:40:09;;;;;;;25.43;16.70;;;;;;;0.42;69.43;98844.42;1750794;81;21115;-40
2022/02/05 10:45:19;;;;;;;22.25;15.80;;;;;;;0.42;69.48;98841.22;1751404;82;21080;-40
2022/02/05 10:47:56;;;;;;;26.37;17.02;;;;;;;0.46;69.57;98832.59;1751243;82;20973;-40
2022/02/05 10:50:30;;;;;;;27.10;16.85;;;;;;;0.49;69.51;98830.64;1750824;81;21033;-39
2022/02/05 10:53:03;;;;;;;25.72;17.32;;;;;;;0.50;69.55;98826.88;1751111;82;21142;-39
2022/02/05 10:55:54;;;;;;;25.70;16.73;;;;;;;0.52;69.51;98826.84;1750848;80;21041;-40
2022/02/05 10:58:29;;;;;;;26.02;16.50;;;;;;;0.54;69.33;98821.17;1750455;81;21045;-40
2022/02/05 11:06:00;;;;;;;26.87;17.67;;;;;;;0.65;69.08;98810.48;1751131;82;22037;-39
2022/02/05 11:08:27;;;;;;;24.95;17.40;;;;;;;0.72;68.90;98816.18;1751628;81;20926;-39
2022/02/05 11:10:57;;;;;;;30.75;19.25;;;;;;;0.76;68.67;98817.14;1751128;82;21049;-40
2022/02/05 11:16:47;;;;;;;25.25;17.82;;;;;;;0.86;68.19;98798.19;1751120;82;21001;-39
2022/02/05 11:18:57;;;;;;;27.15;17.45;;;;;;;0.90;67.95;98801.80;1748238;82;21263;-40
2022/02/05 11:21:26;;;;;;;26.50;17.92;;;;;;;0.96;67.84;98788.56;1751285;82;26794;-40
2022/02/05 11:23:57;;;;;;;28.98;18.65;;;;;;;0.97;67.65;98800.79;1721920;82;20969;-39
2022/02/05 11:26:24;;;;;;;30.35;18.27;;;;;;;0.98;67.46;98790.36;1729151;82;21013;-40
2022/02/05 11:29:03;;;;;;;26.55;16.20;;;;;;;0.98;67.38;98778.89;1751172;82;21037;-39
2022/02/05 11:31:39;;;;;;;26.15;17.70;;;;;;;1.06;67.32;98790.16;1751455;82;21120;-40
2022/02/05 11:34:25;;;;;;;27.30;17.70;;;;;;;1.06;67.32;98790.16;1750182;81;20914;-39
2022/02/05 11:37:10;;;;;;;26.62;17.48;;;;;;;1.07;66.99;98786.38;1750936;81;21025;-40
2022/02/05 11:39:48;;;;;;;26.55;16.45;;;;;;;1.06;66.86;98777.60;1751402;82;21037;-40
2022/02/05 11:42:36;;;;;;;28.85;18.27;;;;;;;1.02;66.94;98769.95;1751220;82;21049;-40
2022/02/05 11:45:28;;;;;;;27.95;17.23;;;;;;;1.00;67.16;98768.16;1750839;80;21975;-40
2022/02/05 11:47:57;;;;;;;31.27;18.17;;;;;;;1.00;67.24;98763.37;1751273;82;21032;-40
2022/02/05 11:50:25;;;;;;;35.35;20.25;;;;;;;0.99;67.14;98754.58;1751557;82;21034;-40
2022/02/05 11:52:54;;;;;;;28.52;18.02;;;;;;;0.99;67.03;98755.91;1751046;82;21029;-40
2022/02/05 11:55:41;;;;;;;27.10;17.15;;;;;;;1.00;67.10;98756.15;1751539;80;21053;-40
2022/02/05 11:58:09;;;;;;;29.72;18.30;;;;;;;1.04;67.04;98755.77;1745872;82;21152;-40
2022/02/05 12:00:56;;;;;;;25.52;17.70;;;;;;;1.04;66.97;98749.64;1751158;82;21073;-40
2022/02/05 12:03:31;;;;;;;27.90;18.35;;;;;;;1.06;67.04;98739.45;1751234;82;20990;-39
2022/02/05 12:06:05;;;;;;;29.07;18.73;;;;;;;1.12;66.98;98729.63;1741424;81;21033;-40
2022/02/05 12:08:41;;;;;;;28.60;17.92;;;;;;;1.15;66.76;98746.38;1751345;82;21038;-39
2022/02/05 12:11:26;;;;;;;31.97;18.32;;;;;;;1.20;66.62;98738.75;1757389;81;21269;-40
2022/02/05 12:14:17;;;;;;;26.07;17.98;;;;;;;1.23;66.34;98740.79;1751437;81;20918;-41
2022/02/05 12:17:14;;;;;;;28.32;16.97;;;;;;;1.23;66.27;98742.91;1756597;81;21063;-38
2022/02/05 12:20:06;;;;;;;29.27;18.48;;;;;;;1.20;66.48;98734.20;1755802;81;21088;-39
2022/02/05 12:25:35;;;;;;;26.12;17.98;;;;;;;1.25;66.48;98729.26;1748524;81;21789;-39
2022/02/05 12:28:38;;;;;;;26.30;17.87;;;;;;;1.28;66.37;98725.95;1754155;81;25716;-39
2022/02/05 12:31:18;;;;;;;28.65;18.67;;;;;;;1.33;66.24;98719.67;1755731;81;21555;-39
2022/02/05 12:33:50;;;;;;;25.52;17.73;;;;;;;1.35;66.07;98710.26;1756647;81;21021;-39
2022/02/05 12:36:33;;;;;;;25.97;17.73;;;;;;;1.35;65.91;98708.14;1756533;81;21590;-39
2022/02/05 12:39:02;;;;;;;27.50;18.35;;;;;;;1.34;65.87;98719.37;1756609;81;21131;-39
2022/02/05 12:41:30;;;;;;;29.55;18.80;;;;;;;1.33;65.90;98708.44;1756479;81;21009;-39
2022/02/05 12:43:59;;;;;;;26.93;17.70;;;;;;;1.30;65.90;98709.87;1756678;81;21012;-39
2022/02/05 12:46:36;;;;;;;26.70;18.73;;;;;;;1.30;65.95;98711.75;1756796;80;28126;-39
2022/02/05 12:49:03;;;;;;;27.35;17.92;;;;;;;1.31;65.93;98702.62;1756622;81;21551;-39
2022/02/05 12:51:31;;;;;;;29.27;18.92;;;;;;;1.29;65.91;98701.61;1756733;81;21145;-39
2022/02/05 12:54:14;;;;;;;26.48;18.40;;;;;;;1.30;65.98;98704.53;1756412;81;21618;-39
2022/02/05 12:56:42;;;;;;;26.10;17.45;;;;;;;1.31;65.91;98702.07;1756668;81;20942;-39
2022/02/05 12:59:15;;;;;;;27.17;18.30;;;;;;;1.33;65.89;98704.44;1756405;81;21073;-39
2022/02/05 13:02:05;;;;;;;29.00;18.82;;;;;;;1.31;65.79;98711.41;1756564;81;21045;-39
2022/02/05 13:04:39;;;;;;;28.77;18.20;;;;;;;1.31;65.78;98715.42;1756757;81;21797;-39
2022/02/05 13:07:22;;;;;;;28.07;18.20;;;;;;;1.26;66.03;98708.90;1726549;83;21621;-39
2022/02/05 13:09:57;;;;;;;29.92;19.27;;;;;;;1.25;66.36;98711.36;1754279;81;21029;-38
2022/02/05 13:12:36;;;;;;;26.60;17.98;;;;;;;1.29;66.42;98712.30;1756607;81;20998;-39
2022/02/05 13:15:24;;;;;;;30.77;19.15;;;;;;;1.30;66.34;98713.87;1756766;81;21061;-39
2022/02/05 13:26:12;;;;;;;29.50;19.07;;;;;;;1.24;67.24;98713.78;1756645;81;21088;-39
2022/02/05 13:28:51;;;;;;;25.02;17.27;;;;;;;1.22;67.51;98714.64;1756382;81;21088;-39
2022/02/05 13:34:07;;;;;;;30.40;19.77;;;;;;;1.17;68.05;98708.11;1756579;80;21009;-39
2022/02/05 13:36:40;;;;;;;31.70;20.25;;;;;;;1.13;68.48;98715.73;1756259;81;20985;-39
2022/02/05 13:40:08;;;;;;;26.97;18.10;;;;;;;1.11;68.89;98716.06;1756354;81;20989;-39
2022/02/05 13:42:01;;;;;;;29.72;19.87;;;;;;;1.12;69.16;98721.61;1739725;81;21021;-39
2022/02/05 13:44:29;;;;;;;32.17;19.52;;;;;;;1.11;69.36;98719.28;1756153;81;21081;-39
2022/02/05 13:47:12;;;;;;;32.45;20.10;;;;;;;1.10;69.51;98718.48;1739465;81;21032;-39
2022/02/05 13:49:39;;;;;;;32.58;19.95;;;;;;;1.13;69.55;98720.52;1756555;81;21032;-39
2022/02/05 13:52:12;;;;;;;30.77;20.15;;;;;;;1.12;69.60;98721.61;1756592;81;20926;-39
2022/02/05 13:54:41;;;;;;;29.12;19.10;;;;;;;1.14;69.74;98715.97;1756717;81;21093;-39
2022/02/05 13:57:12;;;;;;;22.22;15.78;;;;;;;1.16;69.75;98717.79;1751651;81;21470;-39
2022/02/05 13:59:39;;;;;;;29.95;19.90;;;;;;;1.16;69.78;98717.22;1756471;81;21004;-39
2022/02/05 14:02:14;;;;;;;28.62;18.80;;;;;;;1.15;69.86;98715.67;1737708;81;21016;-39
2022/02/05 14:04:41;;;;;;;30.72;20.05;;;;;;;1.14;70.05;98714.64;1727914;81;21057;-39
2022/02/05 14:07:08;;;;;;;31.65;19.92;;;;;;;1.15;70.13;98708.20;1769827;81;21475;-39
2022/02/05 14:09:35;;;;;;;28.57;19.15;;;;;;;1.14;70.29;98704.75;1733477;81;21137;-39
2022/02/05 14:12:17;;;;;;;29.52;18.15;;;;;;;1.14;70.31;98700.74;1726467;83;20902;-39
2022/02/05 14:14:44;;;;;;;29.90;19.90;;;;;;;1.16;70.30;98711.12;1724524;83;21217;-39